createdAt,value
2023-05-21T00:06:57.751Z,13.85
2023-05-21T00:21:53.963Z,13.75
2023-05-21T00:36:50.429Z,13.48
2023-05-21T00:51:47.099Z,13.17
2023-05-21T01:06:43.363Z,12.83
2023-05-21T01:21:39.598Z,12.49
2023-05-21T01:36:35.477Z,12.27
2023-05-21T01:51:31.413Z,11.99
2023-05-21T02:06:27.499Z,12
2023-05-21T02:21:23.222Z,12.29
2023-05-21T02:36:19.056Z,12.61
2023-05-21T02:51:15.444Z,12.67
2023-05-21T03:06:11.037Z,12.61
2023-05-21T03:21:06.990Z,12.57
2023-05-21T03:36:03.108Z,12.54
2023-05-21T03:50:59.028Z,12.49
2023-05-21T04:05:55.855Z,12.65
2023-05-21T04:20:52.660Z,12.71
2023-05-21T04:35:48.360Z,12.82
2023-05-21T04:50:44.804Z,12.89
2023-05-21T05:20:37.728Z,13.16
2023-05-21T05:35:34.519Z,13.41
2023-05-21T05:50:30.309Z,13.79
2023-05-21T06:05:27.075Z,14.4
2023-05-21T06:20:23.451Z,15.07
2023-05-21T06:35:20.636Z,15.22
2023-05-21T06:50:17.137Z,15.15
2023-05-21T07:05:13.499Z,15.52
2023-05-21T07:20:10.070Z,15.94
2023-05-21T07:35:06.312Z,17.4
2023-05-21T07:50:02.739Z,18.19
2023-05-21T08:04:59.864Z,18.05
2023-05-21T08:34:53.372Z,18.24
2023-05-21T08:49:50.026Z,19.18
2023-05-21T09:04:46.385Z,19.37
2023-05-21T09:19:44.064Z,19.57
2023-05-21T09:34:40.429Z,20.18
2023-05-21T09:49:37.110Z,20.57
2023-05-21T10:04:33.264Z,21.68
2023-05-21T10:19:30.277Z,22.11
2023-05-21T10:34:27.187Z,22.56
2023-05-21T10:49:23.848Z,22.66
2023-05-21T11:19:16.717Z,22.97
2023-05-21T11:34:13.355Z,23.77
2023-05-21T11:49:09.754Z,24.19
2023-05-21T12:04:05.956Z,23.79
2023-05-21T12:19:02.090Z,23.4
2023-05-21T12:33:58.262Z,24.82
2023-05-21T12:48:55.222Z,24.52
2023-05-21T13:03:51.839Z,24.76
2023-05-21T13:18:48.258Z,24.97
2023-05-21T13:33:44.359Z,25.81
2023-05-21T13:48:40.680Z,25.39
2023-05-21T14:03:37.166Z,26.31
2023-05-21T14:18:33.443Z,25.22
2023-05-21T14:33:29.551Z,25.6
2023-05-21T15:18:19.139Z,26.11
2023-05-21T15:33:15.697Z,26.02
2023-05-21T15:48:12.073Z,25.68
2023-05-21T16:03:08.783Z,26.08
2023-05-21T16:18:04.406Z,25.41
2023-05-21T16:32:59.779Z,25.15
2023-05-21T16:47:55.398Z,25.66
2023-05-21T17:02:50.651Z,25.24
2023-05-21T17:32:44.396Z,24.33
2023-05-21T17:47:39.868Z,23.37
2023-05-21T18:02:35.228Z,22.93
2023-05-21T18:17:31.104Z,22.89
2023-05-21T18:32:26.945Z,22.57
2023-05-21T18:47:22.115Z,22.19
2023-05-21T19:02:17.924Z,21.81
2023-05-21T19:17:14.028Z,21.57
2023-05-21T19:32:10.220Z,21.16
2023-05-21T19:47:06.041Z,20.72
2023-05-21T20:02:01.696Z,20.49
2023-05-21T20:16:57.220Z,20.16
2023-05-21T20:31:52.990Z,19.69
2023-05-21T20:46:48.713Z,18.83
2023-05-21T22:01:27.889Z,17.57
2023-05-21T22:16:24.231Z,17.21
2023-05-21T22:31:20.155Z,16.89
2023-05-21T22:46:16.698Z,16.47
2023-05-21T23:01:12.875Z,16.29
2023-05-21T23:16:08.863Z,16.03
2023-05-21T23:31:05.413Z,16.02
2023-05-21T23:46:02.123Z,16.06
